Argusville, North Dakota
Current Conditions -  °F | °C
As of 9:18 PM on Thursday 27 Nov 2014 (Local Time) from KFAR Reporting Station
Light Snow Light Snow  
Wind Chill: -7°   Ceiling: 3300
Heat Index:   Visibility: 1.7mi
Dew Point:   Wind: 14mph
Humidity: 73%   Direction: 140°SE
Pressure: 30.18"   Gusts: NA
Location:  47.05°N, 96.93°W
Report Text: KFAR 280318Z 14012KT 1 3/4SM -SN OVC033 M13/M17 A3018 RMK AO2 P0000 T11281167
Loading
Personal Weather Stations






























Interactive Weather Map New forecast layout! Learn more

10-Day Weather Forecast

Advertisements
Track Severe Weather on mobile